Time;durP1;ratioP1;P1;durP2;ratioP2;P2;SDS_P1;SDS_P2;PMS_P1;PMS_P2;Temp;Humidity;BMP_temperature;BMP_pressure;BME280_temperature;BME280_humidity;BME280_pressure;Samples;Min_cycle;Max_cycle;Signal;HPM_P1;HPM_P2
2024/01/23 00:00:24;;;;;;;;;3.33;3.33;;;;;9.48;65.75;102508.78;2017826;27;3470051;-72
2024/01/23 00:01:35;;;;;;;;;2.00;2.00;;;;;9.47;65.88;102499.13;2069480;27;2743013;-72
2024/01/23 00:02:48;;;;;;;;;1.33;1.33;;;;;9.45;65.85;102505.28;2041915;27;2734644;-72
2024/01/23 00:04:01;;;;;;;;;3.33;3.33;;;;;9.45;65.68;102505.28;2070019;27;2741976;-72
2024/01/23 00:05:15;;;;;;;;;2.83;2.83;;;;;9.44;65.74;102515.75;2045774;27;2752356;-72
2024/01/23 00:06:25;;;;;;;;;3.00;3.00;;;;;9.45;65.66;102509.63;2019243;27;2754454;-72
2024/01/23 00:07:36;;;;;;;;;2.00;2.00;;;;;9.44;65.85;102513.13;2059996;27;2741928;-73
2024/01/23 00:08:49;;;;;;;;;3.50;2.00;;;;;9.44;65.67;102518.38;2038687;27;2740917;-72
2024/01/23 00:10:03;;;;;;;;;2.17;2.17;;;;;9.45;65.85;102523.66;2037807;27;2739897;-72
2024/01/23 00:11:16;;;;;;;;;1.83;1.00;;;;;9.46;65.88;102519.25;2062022;27;2739837;-72
2024/01/23 00:12:29;;;;;;;;;3.00;3.00;;;;;9.45;65.57;102517.50;2040940;27;2730477;-72
2024/01/23 00:13:45;;;;;;;;;1.17;1.17;;;;;9.44;65.84;102519.25;2047483;27;2731553;-72
2024/01/23 00:14:58;;;;;;;;;1.17;1.17;;;;;9.45;65.55;102520.13;2071098;27;2735691;-72
2024/01/23 00:16:12;;;;;;;;;1.50;1.50;;;;;9.43;65.66;102522.75;2038510;27;2728421;-72
2024/01/23 00:17:25;;;;;;;;;2.83;2.83;;;;;9.43;65.49;102529.78;2041636;27;2746106;-72
2024/01/23 00:18:38;;;;;;;;;3.00;3.00;;;;;9.43;65.68;102530.63;2046446;27;2733595;-72
2024/01/23 00:19:52;;;;;;;;;1.67;1.67;;;;;9.43;66.00;102543.75;2043862;27;2731897;-72
2024/01/23 00:21:05;;;;;;;;;1.00;1.00;;;;;9.43;65.78;102549.00;2070892;27;2736716;-72
2024/01/23 00:22:19;;;;;;;;;1.17;1.17;;;;;9.43;65.82;102543.75;2046619;27;2725269;-72
2024/01/23 00:23:32;;;;;;;;;1.83;1.83;;;;;9.43;65.69;102540.28;2065252;27;2731550;-72
2024/01/23 00:24:46;;;;;;;;;2.00;2.00;;;;;9.44;65.81;102550.75;2035763;27;2732597;-72
2024/01/23 00:25:59;;;;;;;;;0.50;0.50;;;;;9.44;65.94;102542.88;2039725;27;2733602;-72
2024/01/23 00:27:12;;;;;;;;;1.00;1.00;;;;;9.45;65.90;102541.13;2070884;27;2728407;-72
2024/01/23 00:28:25;;;;;;;;;2.33;2.00;;;;;9.44;66.08;102545.50;2069516;27;2736740;-72
2024/01/23 00:29:38;;;;;;;;;2.00;2.00;;;;;9.43;66.10;102554.25;2031841;27;2735678;-72
2024/01/23 00:30:51;;;;;;;;;1.67;1.67;;;;;9.41;66.03;102560.34;2038322;27;2733634;-73
2024/01/23 00:32:05;;;;;;;;;2.50;2.50;;;;;9.40;66.10;102554.25;2069647;27;2736707;-73
2024/01/23 00:33:18;;;;;;;;;2.83;2.83;;;;;9.40;66.03;102562.13;2046436;27;2753386;-73
2024/01/23 00:34:31;;;;;;;;;2.17;2.17;;;;;9.40;66.20;102562.13;2050909;27;2735698;-73
2024/01/23 00:35:45;;;;;;;;;0.33;0.33;;;;;9.40;66.31;102559.50;2053418;27;2729435;-73
2024/01/23 00:36:58;;;;;;;;;2.83;2.83;;;;;9.40;65.99;102562.13;2060888;27;2752387;-73
2024/01/23 00:38:11;;;;;;;;;2.17;2.17;;;;;9.40;66.26;102571.75;2039685;27;2734668;-73
2024/01/23 00:39:25;;;;;;;;;2.00;2.00;;;;;9.40;66.33;102572.63;2070745;27;2735689;-72
2024/01/23 00:40:38;;;;;;;;;1.33;1.33;;;;;9.40;66.17;102575.25;2046780;27;2733595;-72
2024/01/23 00:41:51;;;;;;;;;2.00;2.00;;;;;9.41;66.48;102565.59;2067404;27;2734691;-72
2024/01/23 00:43:04;;;;;;;;;2.50;2.50;;;;;9.42;66.33;102562.13;2064453;27;2740894;-73
2024/01/23 00:44:17;;;;;;;;;2.50;2.00;;;;;9.43;66.37;102577.88;2045808;27;2735677;-72
2024/01/23 00:45:31;;;;;;;;;2.17;2.17;;;;;9.44;66.55;102584.00;2041533;27;2732037;-72
2024/01/23 00:46:44;;;;;;;;;1.00;1.00;;;;;9.45;66.45;102586.63;2054815;27;2725297;-73
2024/01/23 00:47:57;;;;;;;;;1.17;1.17;;;;;9.48;66.85;102592.75;2060679;27;2732561;-72
2024/01/23 00:49:11;;;;;;;;;1.83;1.83;;;;;9.50;66.50;102598.88;2062490;27;2734663;-73
2024/01/23 00:50:25;;;;;;;;;1.50;1.50;;;;;9.52;66.63;102595.41;2047406;27;2734643;-72
2024/01/23 00:51:39;;;;;;;;;2.00;2.00;;;;;9.55;66.61;102597.16;2046820;27;2732553;-73
2024/01/23 00:52:52;;;;;;;;;1.00;1.00;;;;;9.55;66.62;102587.53;2046290;27;2732580;-72
2024/01/23 00:54:05;;;;;;;;;4.00;4.00;;;;;9.59;66.53;102598.91;2064797;27;2752370;-73
2024/01/23 00:55:18;;;;;;;;;1.67;1.67;;;;;9.60;66.79;102605.91;2028146;27;2748170;-72
2024/01/23 00:56:31;;;;;;;;;2.00;2.00;;;;;9.61;66.77;102605.03;2038771;27;2738850;-72
2024/01/23 00:57:44;;;;;;;;;1.83;0.50;;;;;9.61;66.58;102614.63;2045405;27;2745041;-72
2024/01/23 00:58:58;;;;;;;;;0.50;0.50;;;;;9.61;66.71;102615.53;2059450;27;2732564;-72
2024/01/23 01:00:11;;;;;;;;;1.50;1.00;;;;;9.63;66.25;102613.78;2054969;27;2738845;-72
2024/01/23 01:01:25;;;;;;;;;1.00;1.00;;;;;9.66;66.29;102612.91;2045173;27;2736719;-73
2024/01/23 01:02:38;;;;;;;;;0.67;0.67;;;;;9.67;66.50;102612.91;2061235;27;2733631;-72
2024/01/23 01:03:51;;;;;;;;;0.67;0.67;;;;;9.68;66.59;102598.91;2037681;27;2736744;-73
2024/01/23 01:05:04;;;;;;;;;1.50;1.50;;;;;9.71;66.35;102595.41;2069209;27;2734651;-73
2024/01/23 01:06:18;;;;;;;;;0.50;0.50;;;;;9.72;66.16;102586.66;2037247;27;2725258;-73
2024/01/23 01:07:31;;;;;;;;;1.67;1.50;;;;;9.73;66.37;102592.78;2063063;27;2736776;-72
2024/01/23 01:08:44;;;;;;;;;0.50;0.50;;;;;9.74;66.36;102594.53;2038948;27;2732557;-73
2024/01/23 01:09:57;;;;;;;;;1.00;1.00;;;;;9.73;66.24;102592.78;2056961;27;2734659;-73
2024/01/23 01:11:11;;;;;;;;;2.33;2.33;;;;;9.71;66.42;102599.78;2039353;27;2728406;-73
2024/01/23 01:12:24;;;;;;;;;1.50;0.83;;;;;9.68;66.38;102598.91;2047053;27;2731543;-73
2024/01/23 01:13:37;;;;;;;;;1.50;1.50;;;;;9.70;66.59;102598.91;2036352;27;2736716;-72
2024/01/23 01:14:50;;;;;;;;;2.00;2.00;;;;;9.70;66.51;102590.16;2039011;27;2732564;-72
2024/01/23 01:16:04;;;;;;;;;2.00;2.00;;;;;9.69;66.47;102597.16;2068774;27;2752798;-72
2024/01/23 01:17:17;;;;;;;;;1.83;1.83;;;;;9.68;66.33;102588.41;2045610;27;2746116;-73
2024/01/23 01:18:31;;;;;;;;;1.83;0.00;;;;;9.66;66.54;102598.03;2048967;27;2714846;-73
2024/01/23 01:19:44;;;;;;;;;1.67;1.67;;;;;9.66;66.32;102602.41;2068858;27;2728395;-73
2024/01/23 01:20:57;;;;;;;;;0.83;0.83;;;;;9.67;66.33;102612.03;2064584;27;2725262;-73
2024/01/23 01:22:11;;;;;;;;;2.67;2.67;;;;;9.66;66.51;102612.91;2070181;27;2739880;-73
2024/01/23 01:23:24;;;;;;;;;2.33;2.33;;;;;9.65;66.55;102608.53;2036884;27;2747214;-72
2024/01/23 01:24:37;;;;;;;;;3.67;3.67;;;;;9.63;66.56;102605.03;2059068;27;2754444;-73
2024/01/23 01:25:50;;;;;;;;;2.00;2.00;;;;;9.61;66.54;102606.75;2029358;27;2747144;-72
2024/01/23 01:27:03;;;;;;;;;2.83;2.83;;;;;9.61;66.67;102604.13;2036949;27;2736748;-73
2024/01/23 01:28:18;;;;;;;;;2.00;2.00;;;;;9.59;66.28;102604.16;2046640;27;2738832;-72
2024/01/23 01:29:32;;;;;;;;;1.67;1.67;;;;;9.56;66.51;102594.50;2067515;27;2726319;-73
2024/01/23 01:30:45;;;;;;;;;2.33;2.33;;;;;9.55;67.07;102603.28;2045200;27;2749218;-72
2024/01/23 01:31:58;;;;;;;;;2.00;2.00;;;;;9.54;66.65;102606.75;2036710;27;2729427;-73
2024/01/23 01:33:12;;;;;;;;;2.17;2.17;;;;;9.52;66.56;102605.00;2037104;27;2734632;-73
2024/01/23 01:34:26;;;;;;;;;1.50;1.50;;;;;9.50;66.53;102607.66;2067657;27;2746086;-72
2024/01/23 01:35:39;;;;;;;;;1.17;1.00;;;;;9.49;66.96;102605.88;2046201;27;2737773;-73
2024/01/23 01:36:52;;;;;;;;;1.33;1.17;;;;;9.49;66.99;102610.25;2046039;27;2744034;-72
2024/01/23 01:38:06;;;;;;;;;2.67;2.00;;;;;9.48;66.61;102605.88;2046004;27;2746098;-72
2024/01/23 01:39:19;;;;;;;;;1.67;1.67;;;;;9.47;66.45;102612.00;2046429;27;2741928;-73
2024/01/23 01:40:32;;;;;;;;;1.00;1.00;;;;;9.45;66.58;102610.25;2068451;27;2741936;-73
2024/01/23 01:41:55;;;;;;;;;1.33;1.33;;;;;9.44;66.80;102611.13;2036446;27;2734723;-73
2024/01/23 01:43:29;;;;;;;;;1.00;1.00;;;;;9.44;67.24;102603.25;2055389;27;2717966;-73
2024/01/23 01:44:43;;;;;;;;;2.50;2.50;;;;;9.43;66.85;102609.34;2068392;27;2730481;-73
2024/01/23 01:46:20;;;;;;;;;3.00;3.00;;;;;9.41;67.05;102615.47;2046297;27;2741928;-72
2024/01/23 01:47:34;;;;;;;;;1.83;1.83;;;;;9.39;66.88;102618.09;2044799;27;2729448;-73
2024/01/23 01:48:47;;;;;;;;;3.50;3.50;;;;;9.40;66.86;102627.75;2045697;27;2744035;-72
2024/01/23 01:50:01;;;;;;;;;2.83;2.33;;;;;9.39;66.94;102625.09;2046474;27;2742974;-73
2024/01/23 01:51:16;;;;;;;;;3.50;2.67;;;;;9.36;67.05;102631.22;2035400;27;2754530;-73
2024/01/23 01:52:31;;;;;;;;;3.50;3.50;;;;;9.36;67.05;102625.13;2029339;27;2734640;-73
2024/01/23 01:53:45;;;;;;;;;2.67;1.83;;;;;9.36;66.88;102631.22;2035017;27;2738823;-73
2024/01/23 01:54:59;;;;;;;;;3.50;2.00;;;;;9.34;67.35;102625.09;2046676;27;2733953;-72
2024/01/23 01:56:13;;;;;;;;;1.17;1.17;;;;;9.33;67.03;102624.22;2045539;27;2742963;-72
2024/01/23 01:57:28;;;;;;;;;1.00;1.00;;;;;9.34;66.87;102631.22;2047402;27;2726306;-72
2024/01/23 01:58:43;;;;;;;;;2.17;2.17;;;;;9.33;67.02;102628.59;2069856;27;2734624;-72
2024/01/23 01:59:56;;;;;;;;;1.67;1.67;;;;;9.32;67.20;102629.47;2059857;27;2741923;-72
2024/01/23 02:01:12;;;;;;;;;2.67;2.67;;;;;9.33;67.01;102636.47;2030738;27;2734983;-72
2024/01/23 02:02:26;;;;;;;;;2.33;2.33;;;;;9.33;67.10;102641.72;2040000;27;2731508;-72
2024/01/23 02:03:39;;;;;;;;;2.00;2.00;;;;;9.30;66.89;102639.09;2045857;27;2733613;-73
2024/01/23 02:04:52;;;;;;;;;3.67;3.67;;;;;9.27;67.13;102637.31;2045492;27;2748212;-73
2024/01/23 02:06:06;;;;;;;;;3.00;3.00;;;;;9.30;66.98;102641.72;2044934;27;2754435;-73
2024/01/23 02:07:20;;;;;;;;;3.00;3.00;;;;;9.30;67.15;102636.47;2036566;27;2731508;-72
2024/01/23 02:08:36;;;;;;;;;1.67;1.67;;;;;9.29;67.30;102645.19;2040479;27;2744031;-73
2024/01/23 02:09:49;;;;;;;;;2.50;2.50;;;;;9.28;67.03;102636.47;2069815;27;2734641;-72
2024/01/23 02:11:03;;;;;;;;;2.33;2.33;;;;;9.28;67.14;102638.22;2037793;27;2733615;-72
2024/01/23 02:12:16;;;;;;;;;2.00;2.00;;;;;9.28;67.12;102632.97;2030190;27;2735171;-72
2024/01/23 02:13:30;;;;;;;;;1.00;1.00;;;;;9.26;67.12;102639.97;2046660;27;2741931;-72
2024/01/23 02:14:43;;;;;;;;;2.00;2.00;;;;;9.26;66.93;102645.22;2052510;27;2731527;-72
2024/01/23 02:15:56;;;;;;;;;3.50;2.83;;;;;9.26;66.91;102651.31;2067701;27;2745048;-73
2024/01/23 02:17:09;;;;;;;;;2.00;2.00;;;;;9.23;67.09;102649.53;2053763;27;2737761;-72
2024/01/23 02:18:22;;;;;;;;;4.00;4.00;;;;;9.25;66.90;102653.94;2050809;27;2747156;-73
2024/01/23 02:19:36;;;;;;;;;3.50;3.50;;;;;9.24;67.18;102645.19;2036849;27;2754431;-72
2024/01/23 02:20:49;;;;;;;;;2.33;2.33;;;;;9.25;67.02;102654.81;2033056;27;2737753;-72
2024/01/23 02:22:02;;;;;;;;;2.17;2.17;;;;;9.24;67.04;102650.44;2064907;27;2748220;-72
2024/01/23 02:23:16;;;;;;;;;1.17;1.17;;;;;9.25;66.73;102639.06;2045492;27;2743484;-72
2024/01/23 02:24:29;;;;;;;;;3.00;3.00;;;;;9.25;66.89;102649.56;2077296;27;2752347;-72
2024/01/23 02:25:43;;;;;;;;;0.00;0.00;;;;;9.26;66.92;102664.44;2051930;27;2727370;-73
2024/01/23 02:26:57;;;;;;;;;2.00;2.00;;;;;9.25;66.98;102661.81;2068450;27;2736724;-72
2024/01/23 02:28:11;;;;;;;;;2.33;2.33;;;;;9.22;66.83;102660.94;2068572;27;2737765;-72
2024/01/23 02:29:24;;;;;;;;;2.67;2.67;;;;;9.22;67.23;102665.28;2063389;27;2736771;-72
2024/01/23 02:30:37;;;;;;;;;2.83;2.67;;;;;9.22;67.23;102666.19;2042809;27;2754901;-72
2024/01/23 02:31:50;;;;;;;;;2.17;2.17;;;;;9.22;66.96;102663.56;2036864;27;2733630;-72
2024/01/23 02:33:05;;;;;;;;;2.00;2.00;;;;;9.22;67.10;102668.81;2037777;27;2744062;-72
2024/01/23 02:34:21;;;;;;;;;3.33;3.33;;;;;9.22;67.07;102662.66;2046152;27;2744038;-72
2024/01/23 02:35:34;;;;;;;;;2.00;2.00;;;;;9.21;67.55;102655.69;2045727;27;2740897;-72
2024/01/23 02:36:47;;;;;;;;;1.83;1.83;;;;;9.21;67.29;102669.66;2038194;27;2735679;-72
2024/01/23 02:38:01;;;;;;;;;4.00;4.00;;;;;9.18;67.13;102659.19;2036449;27;2750329;-72
2024/01/23 02:39:14;;;;;;;;;3.17;3.17;;;;;9.17;67.55;102660.03;2054044;27;2748221;-72
2024/01/23 02:40:27;;;;;;;;;2.33;2.00;;;;;9.17;67.42;102662.66;2042259;27;2737762;-72
2024/01/23 02:41:40;;;;;;;;;1.83;1.83;;;;;9.16;67.17;102658.25;2031141;27;2745036;-73
2024/01/23 02:42:53;;;;;;;;;2.00;2.00;;;;;9.16;67.32;102657.41;2030517;27;2746129;-72
2024/01/23 02:44:07;;;;;;;;;2.33;2.33;;;;;9.16;67.30;102654.78;2070081;27;2741935;-72
2024/01/23 02:45:20;;;;;;;;;2.83;2.83;;;;;9.15;67.33;102659.16;2051578;27;2750264;-72
2024/01/23 02:46:34;;;;;;;;;1.67;1.67;;;;;9.13;67.32;102654.78;2064292;27;2733623;-72
2024/01/23 02:47:47;;;;;;;;;2.83;2.83;;;;;9.13;67.59;102652.16;2053951;27;2730503;-72
2024/01/23 02:49:00;;;;;;;;;1.00;1.00;;;;;9.12;67.31;102653.88;2067879;27;2735667;-72
2024/01/23 02:50:13;;;;;;;;;2.67;2.00;;;;;9.11;67.64;102652.16;2060398;27;2724310;-73
2024/01/23 02:51:26;;;;;;;;;2.00;2.00;;;;;9.11;67.75;102646.91;2062868;27;2735704;-72
2024/01/23 02:52:39;;;;;;;;;2.00;2.00;;;;;9.11;67.58;102662.66;2045275;27;2735681;-72
2024/01/23 02:53:53;;;;;;;;;2.17;2.17;;;;;9.09;67.94;102651.25;2046429;27;2733677;-72
2024/01/23 02:55:06;;;;;;;;;2.00;2.00;;;;;9.10;67.51;102660.88;2045297;27;2742007;-72
2024/01/23 02:56:19;;;;;;;;;1.83;1.50;;;;;9.09;67.66;102669.59;2037363;27;2737784;-72
2024/01/23 02:57:33;;;;;;;;;4.00;4.00;;;;;9.09;67.63;102669.59;2035157;27;2755004;-73
2024/01/23 02:58:46;;;;;;;;;2.17;2.00;;;;;9.07;68.34;102661.75;2043816;27;2736747;-72
2024/01/23 02:59:59;;;;;;;;;1.67;1.67;;;;;9.07;67.79;102663.47;2029744;27;2726327;-73
2024/01/23 03:01:12;;;;;;;;;4.67;2.50;;;;;9.06;67.50;102667.00;2061357;27;2752344;-72
2024/01/23 03:02:23;;;;;;;;;2.67;2.67;;;;;9.06;67.95;102664.38;2019347;27;2754462;-72
2024/01/23 03:03:35;;;;;;;;;2.20;2.20;;;;;9.04;68.00;102668.72;2068414;27;2741928;-72
2024/01/23 03:04:49;;;;;;;;;1.83;1.83;;;;;9.02;67.84;102673.06;2068945;27;2731508;-72
2024/01/23 03:06:02;;;;;;;;;1.83;1.83;;;;;9.02;68.07;102667.81;2068813;27;2724727;-72
2024/01/23 03:07:17;;;;;;;;;2.83;2.00;;;;;9.01;68.02;102661.72;2032815;27;2736744;-72
2024/01/23 03:08:30;;;;;;;;;2.00;2.00;;;;;8.99;68.22;102666.94;2039359;27;2730458;-72
2024/01/23 03:09:43;;;;;;;;;3.50;3.50;;;;;8.98;68.00;102672.19;2034666;27;2748192;-72
2024/01/23 03:10:57;;;;;;;;;2.00;2.00;;;;;8.96;68.44;102669.53;2030356;27;2733606;-72
2024/01/23 03:12:17;;;;;;;;;3.00;3.00;;;;;8.96;68.29;102668.69;2002059;27;2754877;-72
2024/01/23 03:13:28;;;;;;;;;5.33;3.33;;;;;8.95;68.38;102673.06;2036739;27;2754447;-73
2024/01/23 03:14:39;;;;;;;;;3.00;3.00;;;;;8.93;68.22;102664.31;2060244;27;2754474;-72
2024/01/23 03:15:52;;;;;;;;;2.00;2.00;;;;;8.92;68.29;102661.66;2076624;27;2736715;-72
2024/01/23 03:17:05;;;;;;;;;2.33;2.00;;;;;8.91;68.29;102652.06;2041851;27;2738837;-72
2024/01/23 03:18:19;;;;;;;;;3.50;3.00;;;;;8.91;68.55;102659.91;2060166;27;2752336;-72
2024/01/23 03:19:32;;;;;;;;;1.00;1.00;;;;;8.90;68.50;102659.03;2044049;27;2744065;-72
2024/01/23 03:20:47;;;;;;;;;2.00;2.00;;;;;8.89;68.48;102665.13;2045135;27;2737785;-72
2024/01/23 03:22:00;;;;;;;;;3.67;3.50;;;;;8.87;68.56;102659.00;2045001;27;2751310;-72
2024/01/23 03:23:13;;;;;;;;;3.50;3.50;;;;;8.86;68.28;102659.91;2044017;27;2754956;-72
2024/01/23 03:24:26;;;;;;;;;2.83;2.83;;;;;8.85;68.34;102672.13;2043440;27;2754457;-73
2024/01/23 03:25:40;;;;;;;;;2.83;2.83;;;;;8.84;68.45;102670.34;2067179;27;2754434;-72
2024/01/23 03:26:53;;;;;;;;;2.00;1.00;;;;;8.84;68.66;102666.88;2043668;27;2739933;-72
2024/01/23 03:28:06;;;;;;;;;0.33;0.33;;;;;8.83;68.80;102668.63;2068971;27;2727369;-72
2024/01/23 03:29:19;;;;;;;;;2.33;2.33;;;;;8.82;68.66;102674.72;2062631;27;2734987;-72
2024/01/23 03:30:32;;;;;;;;;4.00;4.00;;;;;8.81;68.77;102669.47;2037250;27;2749219;-73
2024/01/23 03:31:45;;;;;;;;;1.67;1.67;;;;;8.81;68.83;102678.22;2038035;27;2735697;-72
2024/01/23 03:33:00;;;;;;;;;3.33;3.33;;;;;8.81;68.67;102674.72;2043274;27;2754518;-72
2024/01/23 03:34:13;;;;;;;;;2.33;2.33;;;;;8.81;68.97;102685.22;2045942;27;2746194;-72
2024/01/23 03:35:26;;;;;;;;;3.67;2.33;;;;;8.80;68.62;102676.47;2044796;27;2733630;-72
2024/01/23 03:36:39;;;;;;;;;3.00;3.00;;;;;8.80;68.99;102676.47;2042798;27;2749218;-73
2024/01/23 03:37:53;;;;;;;;;4.17;4.17;;;;;8.78;68.90;102681.72;2036819;27;2754478;-72
2024/01/23 03:39:07;;;;;;;;;4.00;2.17;;;;;8.77;68.92;102682.56;2044941;27;2752399;-72
2024/01/23 03:40:20;;;;;;;;;3.00;2.83;;;;;8.76;69.04;102686.06;2035463;27;2750265;-72
2024/01/23 03:41:35;;;;;;;;;3.83;3.83;;;;;8.75;68.70;102686.94;2028926;27;2730482;-72
2024/01/23 03:42:48;;;;;;;;;2.00;2.00;;;;;8.75;68.87;102681.69;2062556;27;2734676;-72
2024/01/23 03:44:05;;;;;;;;;3.33;3.33;;;;;8.74;68.91;102685.16;2045576;27;2750272;-72
2024/01/23 03:45:18;;;;;;;;;3.50;3.50;;;;;8.74;69.01;102694.78;2044924;27;2747128;-73
2024/01/23 03:46:32;;;;;;;;;2.67;2.67;;;;;8.71;68.88;102687.78;2036264;27;2742006;-72
2024/01/23 03:47:45;;;;;;;;;3.33;3.33;;;;;8.71;68.89;102682.53;2044192;27;2752832;-72
2024/01/23 03:48:58;;;;;;;;;3.33;3.33;;;;;8.71;68.96;102685.16;2043604;27;2734653;-72
2024/01/23 03:50:11;;;;;;;;;3.33;3.33;;;;;8.71;69.08;102689.53;2042838;27;2741929;-72
2024/01/23 03:51:26;;;;;;;;;4.50;2.83;;;;;8.70;69.24;102696.50;2038201;27;2741959;-72
2024/01/23 03:52:39;;;;;;;;;4.33;4.33;;;;;8.69;69.13;102691.25;2040309;27;2750292;-72
2024/01/23 03:53:52;;;;;;;;;2.67;2.67;;;;;8.69;69.23;102697.38;2042472;27;2739849;-72
2024/01/23 03:55:05;;;;;;;;;2.00;2.00;;;;;8.69;69.12;102701.75;2059545;27;2740390;-72
2024/01/23 03:56:19;;;;;;;;;3.00;3.00;;;;;8.68;69.24;102695.63;2052420;27;2754428;-72
2024/01/23 03:57:32;;;;;;;;;3.17;3.00;;;;;8.67;69.43;102701.72;2030131;27;2754434;-73
2024/01/23 03:58:45;;;;;;;;;4.00;4.00;;;;;8.67;69.45;102704.34;2033967;27;2754454;-72
2024/01/23 03:59:58;;;;;;;;;3.00;3.00;;;;;8.66;69.54;102707.84;2060296;27;2739856;-72
2024/01/23 04:01:12;;;;;;;;;4.00;3.50;;;;;8.66;69.43;102718.34;2034755;27;2748635;-72
2024/01/23 04:02:25;;;;;;;;;3.00;3.00;;;;;8.64;69.64;102720.94;2038056;27;2743034;-72
2024/01/23 04:03:38;;;;;;;;;3.67;3.67;;;;;8.62;69.53;102714.78;2038064;27;2748178;-73
2024/01/23 04:04:52;;;;;;;;;2.50;2.50;;;;;8.62;69.90;102712.19;2059730;27;2754415;-72
2024/01/23 04:06:05;;;;;;;;;3.00;3.00;;;;;8.63;69.35;102713.06;2036800;27;2754444;-72
2024/01/23 04:07:18;;;;;;;;;2.83;2.83;;;;;8.62;69.38;102720.03;2040437;27;2748189;-72
2024/01/23 04:08:31;;;;;;;;;2.00;1.83;;;;;8.62;69.44;102719.16;2041971;27;2724256;-72
2024/01/23 04:09:45;;;;;;;;;3.17;2.50;;;;;8.61;69.55;102717.41;2069857;27;2737796;-72
2024/01/23 04:10:59;;;;;;;;;2.83;2.67;;;;;8.62;69.56;102724.41;2037222;27;2752396;-72
2024/01/23 04:12:12;;;;;;;;;3.00;3.00;;;;;8.60;69.19;102723.50;2037973;27;2754836;-72
2024/01/23 04:13:25;;;;;;;;;2.67;2.67;;;;;8.59;69.87;102721.78;2046912;27;2746130;-72
2024/01/23 04:14:40;;;;;;;;;4.67;4.00;;;;;8.59;70.06;102725.28;2037578;27;2745067;-72
2024/01/23 04:15:53;;;;;;;;;2.00;2.00;;;;;8.59;69.72;102732.25;2040075;27;2729437;-72
2024/01/23 04:17:07;;;;;;;;;2.83;2.00;;;;;8.58;69.80;102730.47;2064592;27;2739247;-72
2024/01/23 04:18:20;;;;;;;;;3.00;3.00;;;;;8.60;69.64;102728.75;2059092;27;2736719;-72
2024/01/23 04:19:33;;;;;;;;;4.00;4.00;;;;;8.58;69.69;102731.38;2028788;27;2754455;-72
2024/01/23 04:20:46;;;;;;;;;2.00;2.00;;;;;8.58;69.82;102733.09;2038159;27;2740898;-72
2024/01/23 04:21:59;;;;;;;;;3.67;2.50;;;;;8.58;69.35;102734.00;2037562;27;2735737;-72
2024/01/23 04:23:13;;;;;;;;;3.00;3.00;;;;;8.58;69.74;102727.84;2038946;27;2746121;-72
2024/01/23 04:24:26;;;;;;;;;1.50;1.50;;;;;8.59;69.72;102733.16;2046593;27;2735697;-72
2024/01/23 04:25:39;;;;;;;;;3.33;3.33;;;;;8.59;69.62;102733.16;2036866;27;2735674;-73
2024/01/23 04:26:52;;;;;;;;;3.00;3.00;;;;;8.60;70.14;102736.63;2036874;27;2747196;-72
2024/01/23 04:28:05;;;;;;;;;4.83;4.00;;;;;8.60;69.75;102737.50;2042750;27;2754457;-72
2024/01/23 04:29:19;;;;;;;;;3.50;3.50;;;;;8.61;70.18;102735.78;2040167;27;2738135;-72
2024/01/23 04:30:32;;;;;;;;;3.00;3.00;;;;;8.63;70.11;102731.41;2030859;27;2739833;-73
2024/01/23 04:31:45;;;;;;;;;3.50;3.50;;;;;8.65;70.05;102735.81;2053100;28;2748224;-72
2024/01/23 04:32:58;;;;;;;;;2.00;2.00;;;;;8.66;69.89;102734.06;2038518;27;2737815;-72
2024/01/23 04:34:11;;;;;;;;;2.50;2.33;;;;;8.68;70.15;102748.06;2044570;27;2750268;-72
2024/01/23 04:35:24;;;;;;;;;3.50;3.50;;;;;8.70;69.98;102743.69;2052520;27;2754439;-72
2024/01/23 04:36:38;;;;;;;;;2.00;2.00;;;;;8.69;69.89;102744.59;2043472;27;2738898;-72
2024/01/23 04:37:48;;;;;;;;;4.00;3.00;;;;;8.70;70.31;102751.56;2012825;27;2754437;-72
2024/01/23 04:38:59;;;;;;;;;3.67;3.67;;;;;8.72;70.15;102748.94;2068455;27;2754427;-72
2024/01/23 04:40:12;;;;;;;;;3.67;3.67;;;;;8.73;69.97;102746.34;2068956;27;2741939;-72
2024/01/23 04:41:27;;;;;;;;;3.50;3.33;;;;;8.75;70.25;102746.34;2068160;27;2754452;-72
2024/01/23 04:42:41;;;;;;;;;4.17;4.17;;;;;8.76;70.35;102750.75;2051251;27;2748181;-72
2024/01/23 04:43:55;;;;;;;;;4.67;4.67;;;;;8.78;70.22;102754.25;2046243;27;2752386;-72
2024/01/23 04:45:08;;;;;;;;;2.67;2.67;;;;;8.80;70.11;102759.50;2046835;27;2737765;-72
2024/01/23 04:46:23;;;;;;;;;4.33;3.00;;;;;8.81;69.98;102771.75;2045793;27;2754454;-72
2024/01/23 04:47:33;;;;;;;;;3.00;3.00;;;;;8.83;69.84;102772.63;2013155;27;2754470;-72
2024/01/23 04:48:46;;;;;;;;;3.50;3.50;;;;;8.83;69.71;102778.75;2059918;27;2744046;-72
2024/01/23 04:50:00;;;;;;;;;2.83;2.83;;;;;8.84;69.92;102780.50;2040679;27;2738795;-72
2024/01/23 04:51:13;;;;;;;;;2.83;2.83;;;;;8.86;69.52;102778.78;2046972;27;2744008;-72
2024/01/23 04:52:27;;;;;;;;;4.33;4.17;;;;;8.87;69.62;102784.88;2045947;27;2744034;-72
2024/01/23 04:53:40;;;;;;;;;2.67;2.67;;;;;8.88;70.01;102781.41;2045045;27;2751308;-72
2024/01/23 04:54:53;;;;;;;;;3.00;3.00;;;;;8.89;70.00;102788.41;2053563;27;2754431;-73
2024/01/23 04:56:07;;;;;;;;;4.00;3.50;;;;;8.90;70.02;102787.53;2045032;27;2737793;-72
2024/01/23 04:57:20;;;;;;;;;2.00;2.00;;;;;8.91;69.44;102791.94;2037837;27;2746094;-73
2024/01/23 04:58:33;;;;;;;;;3.67;2.83;;;;;8.92;69.85;102793.66;2030800;27;2750288;-72
2024/01/23 04:59:46;;;;;;;;;3.33;3.33;;;;;8.94;69.93;102801.56;2029252;27;2744617;-72
2024/01/23 05:00:59;;;;;;;;;5.00;5.00;;;;;8.94;70.09;102806.81;2037619;27;2749223;-72
2024/01/23 05:02:10;;;;;;;;;3.00;3.00;;;;;8.97;70.25;102801.56;2009907;27;2754424;-72
2024/01/23 05:03:23;;;;;;;;;2.40;2.40;;;;;8.97;69.73;102812.94;2054242;27;2734640;-72
2024/01/23 05:04:36;;;;;;;;;3.67;3.67;;;;;8.97;69.55;102812.06;2061376;27;2752391;-72
2024/01/23 05:05:49;;;;;;;;;3.00;3.00;;;;;8.97;70.01;102807.69;2028802;27;2741921;-72
2024/01/23 05:07:02;;;;;;;;;2.33;2.33;;;;;8.97;69.73;102807.69;2023715;27;2752344;-72
2024/01/23 05:08:16;;;;;;;;;3.83;3.83;;;;;8.99;69.92;102805.06;2063256;27;2736735;-72
2024/01/23 05:09:32;;;;;;;;;3.17;2.17;;;;;8.99;69.98;102811.22;2046608;27;2736727;-72
2024/01/23 05:10:45;;;;;;;;;3.33;3.33;;;;;8.99;69.85;102805.97;2019850;27;2754443;-72
2024/01/23 05:11:58;;;;;;;;;3.00;3.00;;;;;9.00;69.82;102807.72;2068659;27;2750293;-72
2024/01/23 05:13:11;;;;;;;;;3.67;3.67;;;;;9.01;70.04;102811.25;2036608;27;2750264;-72
2024/01/23 05:14:25;;;;;;;;;3.00;3.00;;;;;9.02;70.06;102815.59;2036861;27;2749051;-72
2024/01/23 05:15:38;;;;;;;;;3.50;3.50;;;;;9.03;70.08;102808.63;2069169;27;2741955;-72
2024/01/23 05:16:52;;;;;;;;;5.33;5.33;;;;;9.04;70.28;102808.63;2035355;27;2748177;-72
2024/01/23 05:18:06;;;;;;;;;3.00;3.00;;;;;9.05;70.01;102812.13;2035266;27;2754503;-72
2024/01/23 05:19:19;;;;;;;;;3.83;3.83;;;;;9.06;69.96;102806.03;2069493;27;2737770;-72
2024/01/23 05:20:35;;;;;;;;;4.50;4.50;;;;;9.07;70.08;102810.38;2036949;27;2747152;-72
2024/01/23 05:21:49;;;;;;;;;4.00;4.00;;;;;9.08;69.83;102807.78;2030887;27;2736748;-72
2024/01/23 05:23:05;;;;;;;;;3.83;3.83;;;;;9.08;70.12;102806.91;2038026;27;2752368;-72
2024/01/23 05:24:17;;;;;;;;;4.00;4.00;;;;;9.10;69.77;102815.66;2019901;27;2754501;-72
2024/01/23 05:25:30;;;;;;;;;4.00;4.00;;;;;9.11;69.91;102809.56;2070046;27;2739837;-72
2024/01/23 05:26:41;;;;;;;;;3.33;3.33;;;;;9.12;70.12;102811.28;2019174;27;2754430;-72
2024/01/23 05:27:52;;;;;;;;;6.33;5.67;;;;;9.12;70.05;102813.91;2064010;27;2746589;-72
2024/01/23 05:29:05;;;;;;;;;3.50;3.17;;;;;9.13;69.95;102818.31;2066074;27;2748278;-72
2024/01/23 05:30:18;;;;;;;;;2.33;2.33;;;;;9.14;70.07;102829.66;2044711;27;2740922;-72
2024/01/23 05:31:31;;;;;;;;;4.00;4.00;;;;;9.13;69.92;102825.31;2045646;27;2746609;-72
2024/01/23 05:32:45;;;;;;;;;3.17;3.17;;;;;9.14;70.27;102830.53;2042353;27;2749219;-72
2024/01/23 05:33:58;;;;;;;;;4.83;4.83;;;;;9.14;69.96;102832.28;2045633;27;2740922;-72
2024/01/23 05:35:12;;;;;;;;;3.17;3.17;;;;;9.15;69.78;102831.44;2068469;27;2748705;-72
2024/01/23 05:36:25;;;;;;;;;4.67;4.67;;;;;9.15;69.93;102829.69;2046074;27;2749253;-72
2024/01/23 05:37:38;;;;;;;;;2.00;2.00;;;;;9.14;69.87;102832.28;2062566;27;2750281;-72